createdAt,value
2023-04-06T00:00:39.876Z,1.23
2023-04-06T00:03:08.512Z,1.20
2023-04-06T00:05:37.159Z,1.10
2023-04-06T00:08:06.040Z,1.23
2023-04-06T00:10:36.033Z,1.30
2023-04-06T00:13:04.599Z,1.35
2023-04-06T00:15:33.161Z,1.30
2023-04-06T00:18:01.822Z,1.25
2023-04-06T00:20:30.535Z,1.02
2023-04-06T00:22:59.079Z,1.08
2023-04-06T00:25:28.591Z,1.00
2023-04-06T00:27:58.421Z,1.17
2023-04-06T00:30:26.917Z,1.20
2023-04-06T00:32:55.465Z,1.05
2023-04-06T00:35:24.078Z,1.20
2023-04-06T00:37:52.586Z,1.13
2023-04-06T00:40:21.311Z,1.10
2023-04-06T00:42:49.819Z,1.10
2023-04-06T00:45:19.908Z,1.60
2023-04-06T00:47:48.534Z,1.10
2023-04-06T00:50:17.055Z,1.30
2023-04-06T00:52:45.549Z,1.10
2023-04-06T00:55:14.121Z,1.20
2023-04-06T00:57:42.636Z,1.23
2023-04-06T01:00:12.159Z,1.20
2023-04-06T01:02:42.145Z,1.00
2023-04-06T01:05:11.027Z,1.00
2023-04-06T01:07:39.621Z,1.40
2023-04-06T01:10:08.770Z,1.00
2023-04-06T01:12:38.379Z,1.13
2023-04-06T01:15:08.638Z,1.20
2023-04-06T01:17:37.249Z,1.30
2023-04-06T01:20:08.755Z,1.10
2023-04-06T01:22:38.581Z,1.20
2023-04-06T01:25:08.044Z,1.20
2023-04-06T01:27:36.588Z,1.02
2023-04-06T01:30:06.004Z,1.25
2023-04-06T01:32:34.585Z,1.30
2023-04-06T01:35:03.126Z,1.27
2023-04-06T01:37:33.554Z,1.27
2023-04-06T01:40:03.602Z,1.20
2023-04-06T01:42:32.312Z,1.20
2023-04-06T01:45:00.889Z,1.17
2023-04-06T01:47:29.110Z,1.15
2023-04-06T01:49:57.423Z,1.30
2023-04-06T01:52:25.758Z,1.20
2023-04-06T01:54:54.180Z,1.20
2023-04-06T01:57:23.769Z,1.10
2023-04-06T01:59:52.022Z,1.05
2023-04-06T02:02:20.598Z,1.30
2023-04-06T02:04:48.813Z,1.20
2023-04-06T02:07:17.095Z,1.20
2023-04-06T02:09:45.530Z,1.08
2023-04-06T02:12:13.774Z,1.38
2023-04-06T02:14:43.487Z,1.10
2023-04-06T02:17:11.734Z,1.30
2023-04-06T02:19:39.982Z,1.15
2023-04-06T02:22:08.261Z,1.40
2023-04-06T02:24:36.624Z,1.20
2023-04-06T02:27:04.934Z,1.20
2023-04-06T02:29:33.144Z,1.33
2023-04-06T02:32:02.803Z,1.10
2023-04-06T02:34:31.395Z,1.30
2023-04-06T02:36:59.648Z,1.30
2023-04-06T02:39:28.091Z,1.10
2023-04-06T02:41:56.353Z,1.30
2023-04-06T02:44:24.560Z,1.48
2023-04-06T02:46:52.913Z,1.20
2023-04-06T02:49:22.547Z,1.40
2023-04-06T02:51:50.821Z,1.20
2023-04-06T02:54:19.013Z,1.40
2023-04-06T02:56:47.332Z,1.30
2023-04-06T02:59:15.645Z,1.30
2023-04-06T03:01:43.920Z,1.30
2023-04-06T03:04:12.299Z,1.30
2023-04-06T03:06:42.020Z,1.40
2023-04-06T03:09:10.377Z,1.30
2023-04-06T03:11:38.693Z,1.40
2023-04-06T03:14:06.916Z,1.38
2023-04-06T03:16:35.143Z,1.40
2023-04-06T03:19:03.317Z,1.35
2023-04-06T03:21:31.489Z,1.40
2023-04-06T03:24:00.998Z,1.30
2023-04-06T03:26:29.212Z,1.42
2023-04-06T03:28:57.387Z,1.20
2023-04-06T03:31:25.751Z,1.30
2023-04-06T03:33:54.010Z,1.13
2023-04-06T03:36:22.197Z,1.33
2023-04-06T03:38:50.446Z,1.07
2023-04-06T03:41:20.635Z,1.33
2023-04-06T03:43:48.888Z,1.33
2023-04-06T03:46:17.142Z,1.20
2023-04-06T03:48:45.341Z,1.30
2023-04-06T03:51:13.520Z,1.40
2023-04-06T03:53:41.771Z,1.20
2023-04-06T03:56:10.121Z,1.23
2023-04-06T03:58:39.659Z,1.40
2023-04-06T04:01:07.926Z,1.23
2023-04-06T04:03:36.353Z,1.40
2023-04-06T04:06:04.875Z,1.40
2023-04-06T04:08:33.026Z,1.30
2023-04-06T04:11:01.294Z,1.48
2023-04-06T04:13:29.513Z,1.50
2023-04-06T04:15:59.056Z,1.40
2023-04-06T04:18:27.265Z,1.30
2023-04-06T04:20:55.492Z,1.38
2023-04-06T04:23:23.676Z,1.20
2023-04-06T04:25:52.164Z,1.50
2023-04-06T04:28:20.700Z,1.40
2023-04-06T04:30:48.974Z,1.45
2023-04-06T04:33:18.497Z,1.40
2023-04-06T04:35:46.696Z,1.67
2023-04-06T04:38:14.874Z,1.40
2023-04-06T04:40:43.077Z,1.52
2023-04-06T04:43:11.273Z,1.50
2023-04-06T04:45:39.510Z,1.40
2023-04-06T04:48:09.202Z,1.70
2023-04-06T04:50:38.838Z,1.58
2023-04-06T04:53:07.350Z,1.50
2023-04-06T04:55:35.778Z,1.60
2023-04-06T04:58:04.346Z,1.50
2023-04-06T05:00:32.654Z,1.40
2023-04-06T05:03:01.153Z,1.40
2023-04-06T05:05:29.479Z,1.52
2023-04-06T05:07:59.296Z,1.67
2023-04-06T05:10:27.564Z,1.60
2023-04-06T05:12:55.826Z,1.50
2023-04-06T05:15:24.026Z,1.53
2023-04-06T05:17:53.317Z,1.75
2023-04-06T05:20:21.602Z,1.50
2023-04-06T05:22:49.789Z,1.60
2023-04-06T05:25:19.428Z,1.50
2023-04-06T05:27:47.676Z,1.40
2023-04-06T05:30:16.774Z,1.70
2023-04-06T05:32:45.567Z,1.55
2023-04-06T05:35:14.123Z,1.83
2023-04-06T05:37:42.406Z,1.58
2023-04-06T05:40:11.608Z,1.40
2023-04-06T05:42:42.160Z,2.03
2023-04-06T05:45:17.469Z,1.65
2023-04-06T05:47:45.946Z,1.42
2023-04-06T05:50:14.787Z,1.80
2023-04-06T05:52:44.257Z,1.83
2023-04-06T05:55:13.258Z,1.65
2023-04-06T05:57:42.833Z,1.67
2023-04-06T06:00:13.023Z,1.70
2023-04-06T06:02:43.282Z,2.00
2023-04-06T06:05:11.746Z,1.60
2023-04-06T06:07:40.078Z,2.15
2023-04-06T06:10:10.386Z,1.80
2023-04-06T06:12:38.582Z,1.77
2023-04-06T06:15:09.781Z,1.83
2023-04-06T06:17:39.192Z,1.70
2023-04-06T06:20:09.498Z,1.60
2023-04-06T06:22:38.068Z,1.50
2023-04-06T06:25:06.733Z,2.57
2023-04-06T06:27:34.925Z,2.90
2023-04-06T06:30:03.608Z,1.90
2023-04-06T06:32:34.280Z,2.22
2023-04-06T06:35:03.648Z,1.50
2023-04-06T06:37:31.863Z,2.05
2023-04-06T06:40:00.022Z,1.92
2023-04-06T06:42:28.286Z,1.80
2023-04-06T06:44:56.962Z,1.98
2023-04-06T06:47:25.334Z,2.50
2023-04-06T06:49:54.891Z,1.60
2023-04-06T06:52:24.185Z,2.75
2023-04-06T06:54:52.415Z,1.60
2023-04-06T06:57:20.588Z,1.77
2023-04-06T06:59:49.070Z,3.00
2023-04-06T07:02:17.303Z,1.80
2023-04-06T07:04:45.549Z,2.80
2023-04-06T07:07:15.107Z,2.10
2023-04-06T07:09:43.282Z,3.17
2023-04-06T07:12:11.648Z,2.22
2023-04-06T07:14:39.855Z,2.75
2023-04-06T07:17:08.260Z,2.50
2023-04-06T07:19:36.602Z,2.42
2023-04-06T07:22:05.733Z,2.55
2023-04-06T07:24:35.319Z,2.60
2023-04-06T07:27:03.532Z,2.60
2023-04-06T07:29:31.754Z,2.47
2023-04-06T07:32:00.256Z,1.73
2023-04-06T07:34:28.524Z,1.63
2023-04-06T07:36:57.684Z,3.10
2023-04-06T07:39:27.375Z,2.58
2023-04-06T07:41:56.897Z,2.20
2023-04-06T07:44:25.324Z,2.75
2023-04-06T07:46:53.508Z,2.63
2023-04-06T07:49:21.848Z,3.33
2023-04-06T07:51:50.043Z,3.00
2023-04-06T07:54:18.236Z,2.53
2023-04-06T07:56:46.404Z,2.53
2023-04-06T07:59:15.986Z,2.50
2023-04-06T08:01:44.153Z,2.70
2023-04-06T08:04:12.743Z,2.95
2023-04-06T08:06:42.206Z,3.22
2023-04-06T08:09:10.524Z,2.93
2023-04-06T08:11:38.749Z,3.10
2023-04-06T08:14:07.233Z,2.50
2023-04-06T08:16:37.055Z,3.30
2023-04-06T08:19:05.373Z,2.75
2023-04-06T08:21:33.509Z,2.63
2023-04-06T08:24:02.475Z,1.95
2023-04-06T08:26:31.119Z,3.22
2023-04-06T08:28:59.401Z,3.53
2023-04-06T08:31:27.575Z,2.10
2023-04-06T08:33:57.163Z,2.53
2023-04-06T08:36:25.424Z,2.85
2023-04-06T08:38:54.815Z,3.20
2023-04-06T08:41:23.049Z,2.25
2023-04-06T08:43:58.407Z,3.28
2023-04-06T08:46:30.744Z,3.22
2023-04-06T08:49:01.963Z,2.95
2023-04-06T08:51:32.125Z,2.00
2023-04-06T08:54:01.895Z,1.40
2023-04-06T08:56:30.969Z,2.20
2023-04-06T08:58:59.555Z,3.72
2023-04-06T09:01:30.020Z,3.80
2023-04-06T09:04:02.420Z,4.07
2023-04-06T09:06:31.893Z,3.33
2023-04-06T09:09:01.941Z,3.57
2023-04-06T09:11:30.197Z,3.97
2023-04-06T09:13:59.617Z,3.10
2023-04-06T09:16:27.936Z,4.03
2023-04-06T09:18:56.171Z,4.30
2023-04-06T09:21:26.793Z,4.40
2023-04-06T09:24:01.839Z,2.92
2023-04-06T09:26:30.688Z,3.60
2023-04-06T09:29:02.250Z,4.00
2023-04-06T09:31:34.068Z,4.00
2023-04-06T09:34:04.350Z,3.40
2023-04-06T09:36:35.224Z,4.20
2023-04-06T09:39:06.180Z,4.15
2023-04-06T09:41:36.178Z,4.10
2023-04-06T09:44:06.991Z,4.53
2023-04-06T09:46:54.921Z,4.63
2023-04-06T09:49:28.314Z,3.83
2023-04-06T09:52:01.837Z,4.93
2023-04-06T09:54:32.170Z,4.60
2023-04-06T09:57:15.103Z,4.90
2023-04-06T09:59:52.242Z,4.28
2023-04-06T10:02:29.372Z,3.90
2023-04-06T10:05:04.641Z,4.75
2023-04-06T10:07:37.101Z,4.40
2023-04-06T10:10:08.968Z,4.03
2023-04-06T10:12:37.553Z,4.82
2023-04-06T10:15:06.654Z,4.47
2023-04-06T10:17:34.810Z,4.57
2023-04-06T10:20:11.157Z,4.80
2023-04-06T10:22:51.770Z,4.18
2023-04-06T10:25:27.910Z,4.20
2023-04-06T10:28:02.681Z,4.75
2023-04-06T10:30:31.809Z,5.50
2023-04-06T10:33:00.002Z,5.63
2023-04-06T10:35:40.088Z,5.23
2023-04-06T10:38:09.932Z,5.20
2023-04-06T10:40:40.109Z,5.28
2023-04-06T10:43:13.650Z,4.82
2023-04-06T10:45:44.191Z,4.57
2023-04-06T10:48:16.921Z,4.93
2023-04-06T10:50:47.434Z,5.20
2023-04-06T10:53:24.524Z,5.10
2023-04-06T10:55:53.365Z,4.72
2023-04-06T10:58:21.980Z,5.13
2023-04-06T11:00:51.854Z,5.35
2023-04-06T11:03:20.714Z,4.95
2023-04-06T11:05:50.916Z,5.30
2023-04-06T11:08:28.230Z,5.30
2023-04-06T11:11:07.959Z,4.93
2023-04-06T11:13:44.325Z,5.75
2023-04-06T11:16:17.492Z,5.68
2023-04-06T11:18:53.556Z,5.82
2023-04-06T11:21:23.042Z,4.72
2023-04-06T11:23:52.582Z,4.22
2023-04-06T11:26:21.490Z,5.40
2023-04-06T11:28:49.934Z,5.43
2023-04-06T11:31:18.193Z,5.15
2023-04-06T11:33:46.347Z,4.22
2023-04-06T11:36:16.673Z,5.50
2023-04-06T11:38:45.503Z,4.80
2023-04-06T11:41:15.069Z,5.35
2023-04-06T11:43:49.352Z,4.85
2023-04-06T11:46:21.061Z,5.47
2023-04-06T11:48:49.409Z,4.85
2023-04-06T11:51:25.247Z,5.28
2023-04-06T11:53:53.468Z,4.50
2023-04-06T11:56:30.705Z,4.28
2023-04-06T11:59:00.923Z,4.70
2023-04-06T12:01:29.427Z,5.47
2023-04-06T12:03:58.296Z,4.32
2023-04-06T12:06:27.121Z,5.07
2023-04-06T12:08:55.315Z,5.25
2023-04-06T12:11:23.514Z,5.25
2023-04-06T12:13:53.072Z,5.07
2023-04-06T12:16:21.474Z,4.75
2023-04-06T12:18:49.684Z,4.67
2023-04-06T12:21:17.884Z,4.50
2023-04-06T12:23:46.294Z,5.03
2023-04-06T12:26:14.485Z,3.30
2023-04-06T12:28:42.788Z,4.57
2023-04-06T12:31:17.819Z,4.23
2023-04-06T12:33:48.924Z,5.57
2023-04-06T12:36:20.059Z,5.20
2023-04-06T12:38:50.507Z,5.20
2023-04-06T12:41:19.133Z,5.60
2023-04-06T12:43:47.726Z,5.35
2023-04-06T12:46:17.430Z,4.82
2023-04-06T12:48:45.819Z,5.53
2023-04-06T12:51:14.233Z,3.88
2023-04-06T12:53:42.444Z,4.65
2023-04-06T12:56:16.695Z,4.53
2023-04-06T12:58:44.930Z,3.40
2023-04-06T13:01:13.975Z,2.42
2023-04-06T13:03:44.007Z,3.47
2023-04-06T13:06:13.986Z,3.38
2023-04-06T13:08:42.518Z,3.20
2023-04-06T13:11:10.915Z,3.20
2023-04-06T13:13:39.887Z,2.72
2023-04-06T13:16:10.638Z,3.10
2023-04-06T13:18:39.894Z,2.80
2023-04-06T13:21:10.248Z,2.63
2023-04-06T13:23:38.422Z,2.75
2023-04-06T13:26:08.554Z,2.55
2023-04-06T13:28:38.981Z,2.75
2023-04-06T13:31:07.687Z,2.97
2023-04-06T13:33:36.505Z,2.47
2023-04-06T13:36:05.942Z,2.53
2023-04-06T13:38:35.690Z,3.10
2023-04-06T13:41:03.970Z,2.90
2023-04-06T13:43:32.269Z,2.83
2023-04-06T13:46:02.127Z,3.10
2023-04-06T13:48:30.584Z,3.00
2023-04-06T13:50:59.614Z,2.17
2023-04-06T13:53:27.896Z,3.55
2023-04-06T13:55:57.885Z,3.30
2023-04-06T13:58:26.721Z,2.00
2023-04-06T14:00:55.058Z,2.33
2023-04-06T14:03:24.540Z,1.27
2023-04-06T14:05:52.825Z,3.00
2023-04-06T14:08:21.864Z,1.75
2023-04-06T14:10:50.333Z,1.90
2023-04-06T14:13:20.222Z,2.25
2023-04-06T14:15:48.451Z,2.92
2023-04-06T14:18:16.992Z,3.15
2023-04-06T14:20:45.851Z,1.88
2023-04-06T14:23:14.070Z,2.10
2023-04-06T14:25:42.277Z,2.28
2023-04-06T14:28:10.499Z,2.55
2023-04-06T14:30:40.253Z,2.37
2023-04-06T14:33:08.790Z,2.40
2023-04-06T14:35:40.976Z,2.42
2023-04-06T14:38:09.231Z,2.50
2023-04-06T14:40:38.573Z,2.80
2023-04-06T14:43:07.110Z,2.50
2023-04-06T14:45:37.698Z,1.75
2023-04-06T14:48:08.151Z,2.38
2023-04-06T14:50:36.500Z,2.15
2023-04-06T14:53:04.803Z,1.92
2023-04-06T14:55:33.179Z,2.25
2023-04-06T14:58:01.438Z,3.10
2023-04-06T15:00:29.666Z,2.40
2023-04-06T15:02:58.140Z,3.10
2023-04-06T15:05:27.794Z,2.63
2023-04-06T15:07:56.091Z,2.60
2023-04-06T15:10:24.357Z,2.75
2023-04-06T15:12:52.591Z,3.00
2023-04-06T15:15:21.293Z,3.22
2023-04-06T15:17:49.597Z,2.67
2023-04-06T15:20:18.146Z,1.83
2023-04-06T15:22:48.149Z,2.85
2023-04-06T15:25:16.780Z,2.65
2023-04-06T15:27:45.013Z,2.40
2023-04-06T15:30:14.093Z,2.03
2023-04-06T15:32:42.349Z,2.80
2023-04-06T15:35:15.811Z,2.22
2023-04-06T15:37:44.015Z,2.35
2023-04-06T15:40:16.672Z,3.00
2023-04-06T15:42:44.954Z,2.60
2023-04-06T15:45:13.730Z,1.70
2023-04-06T15:47:43.025Z,2.40
2023-04-06T15:50:12.534Z,2.40
2023-04-06T15:52:41.483Z,2.47
2023-04-06T15:55:11.096Z,2.30
2023-04-06T15:57:41.445Z,2.20
2023-04-06T16:00:11.542Z,1.90
2023-04-06T16:02:39.935Z,1.30
2023-04-06T16:05:08.840Z,2.30
2023-04-06T16:07:38.272Z,2.07
2023-04-06T16:10:08.556Z,2.28
2023-04-06T16:12:36.753Z,1.60
2023-04-06T16:15:08.241Z,2.25
2023-04-06T16:17:36.525Z,2.57
2023-04-06T16:20:06.041Z,2.33
2023-04-06T16:22:34.293Z,1.80
2023-04-06T16:25:02.680Z,2.58
2023-04-06T16:27:30.999Z,2.60
2023-04-06T16:29:59.596Z,1.77
2023-04-06T16:32:29.207Z,1.52
2023-04-06T16:34:57.504Z,2.67
2023-04-06T16:37:26.487Z,1.70
2023-04-06T16:39:54.754Z,2.78
2023-04-06T16:42:23.101Z,2.85
2023-04-06T16:44:51.551Z,2.75
2023-04-06T16:47:19.896Z,2.00
2023-04-06T16:49:49.526Z,2.90
2023-04-06T16:52:17.781Z,2.03
2023-04-06T16:54:46.062Z,1.67
2023-04-06T16:57:15.533Z,2.72
2023-04-06T16:59:44.074Z,2.88
2023-04-06T17:02:12.343Z,2.40
2023-04-06T17:04:40.619Z,2.55
2023-04-06T17:07:10.882Z,2.45
2023-04-06T17:09:39.134Z,2.45
2023-04-06T17:12:07.957Z,1.40
2023-04-06T17:14:36.291Z,2.70
2023-04-06T17:17:04.691Z,2.00
2023-04-06T17:19:32.975Z,2.47
2023-04-06T17:22:01.247Z,2.13
2023-04-06T17:24:30.890Z,2.33
2023-04-06T17:26:59.121Z,2.30
2023-04-06T17:29:27.381Z,2.30
2023-04-06T17:31:55.774Z,1.85
2023-04-06T17:34:23.978Z,1.75
2023-04-06T17:36:52.246Z,1.75
2023-04-06T17:39:20.557Z,2.55
2023-04-06T17:41:50.198Z,2.50
2023-04-06T17:44:18.412Z,2.80
2023-04-06T17:46:46.850Z,2.53
2023-04-06T17:49:15.437Z,2.67
2023-04-06T17:51:43.952Z,2.13
2023-04-06T17:54:12.472Z,2.50
2023-04-06T17:56:41.569Z,2.78
2023-04-06T17:59:12.043Z,2.30
2023-04-06T18:01:41.178Z,1.63
2023-04-06T18:04:09.770Z,2.33
2023-04-06T18:06:38.408Z,1.85
2023-04-06T18:09:06.931Z,2.22
2023-04-06T18:11:35.472Z,2.25
2023-04-06T18:14:08.276Z,2.38
2023-04-06T18:16:38.365Z,2.80
2023-04-06T18:19:07.629Z,2.13
2023-04-06T18:21:37.069Z,2.10
2023-04-06T18:24:06.686Z,2.70
2023-04-06T18:26:35.935Z,2.50
2023-04-06T18:29:04.880Z,2.10
2023-04-06T18:31:33.449Z,2.03
2023-04-06T18:34:04.724Z,2.37
2023-04-06T18:36:33.249Z,2.15
2023-04-06T18:39:01.849Z,2.20
2023-04-06T18:41:30.490Z,2.20
2023-04-06T18:43:59.000Z,2.50
2023-04-06T18:46:27.625Z,2.55
2023-04-06T18:48:56.166Z,2.33
2023-04-06T18:51:31.480Z,2.22
2023-04-06T18:54:01.244Z,2.15
2023-04-06T18:56:30.104Z,2.40
2023-04-06T18:58:58.613Z,2.63
2023-04-06T19:01:30.849Z,3.17
2023-04-06T19:04:01.545Z,1.95
2023-04-06T19:06:33.092Z,2.50
2023-04-06T19:09:02.321Z,2.90
2023-04-06T19:11:30.902Z,2.63
2023-04-06T19:13:59.481Z,2.20
2023-04-06T19:16:29.295Z,2.40
2023-04-06T19:18:59.915Z,2.10
2023-04-06T19:21:29.924Z,2.88
2023-04-06T19:23:58.671Z,1.80
2023-04-06T19:26:29.468Z,2.40
2023-04-06T19:28:58.002Z,2.00
2023-04-06T19:31:28.130Z,2.67
2023-04-06T19:33:57.322Z,2.45
2023-04-06T19:36:26.154Z,2.70
2023-04-06T19:38:56.503Z,2.30
2023-04-06T19:41:26.535Z,1.95
2023-04-06T19:43:55.219Z,2.17
2023-04-06T19:46:23.785Z,1.83
2023-04-06T19:48:52.296Z,2.15
2023-04-06T19:51:20.788Z,2.28
2023-04-06T19:53:49.341Z,2.37
2023-04-06T19:56:19.273Z,2.35
2023-04-06T19:58:47.766Z,1.50
2023-04-06T20:01:16.686Z,2.20
2023-04-06T20:03:45.519Z,2.15
2023-04-06T20:06:14.058Z,2.40
2023-04-06T20:08:42.563Z,2.40
2023-04-06T20:11:11.301Z,2.05
2023-04-06T20:13:41.254Z,2.40
2023-04-06T20:16:09.784Z,2.30
2023-04-06T20:18:38.343Z,2.15
2023-04-06T20:21:06.955Z,2.10
2023-04-06T20:23:37.467Z,2.10
2023-04-06T20:26:09.049Z,2.05
2023-04-06T20:28:39.380Z,2.08
2023-04-06T20:31:09.615Z,2.60
2023-04-06T20:33:38.197Z,2.03
2023-04-06T20:36:07.141Z,2.30
2023-04-06T20:38:35.704Z,2.60
2023-04-06T20:41:04.645Z,1.77
2023-04-06T20:43:35.514Z,2.33
2023-04-06T20:46:05.006Z,2.58
2023-04-06T20:48:36.314Z,2.72
2023-04-06T20:51:05.501Z,2.10
2023-04-06T20:53:34.035Z,2.80
2023-04-06T20:56:03.684Z,2.22
2023-04-06T20:58:32.196Z,1.98
2023-04-06T21:01:00.729Z,2.45
2023-04-06T21:03:29.492Z,1.43
2023-04-06T21:06:02.162Z,1.88
2023-04-06T21:08:30.732Z,0.73
2023-04-06T21:10:59.222Z,0.80
2023-04-06T21:13:27.800Z,1.98
2023-04-06T21:15:57.098Z,0.80
2023-04-06T21:18:25.908Z,0.82
2023-04-06T21:20:54.580Z,1.67
2023-04-06T21:23:24.434Z,1.85
2023-04-06T21:25:55.365Z,1.77
2023-04-06T21:28:24.307Z,1.48
2023-04-06T21:30:53.673Z,1.20
2023-04-06T21:33:22.384Z,1.10
2023-04-06T21:35:50.924Z,1.00
2023-04-06T21:38:19.727Z,1.20
2023-04-06T21:40:57.095Z,1.05
2023-04-06T21:43:25.641Z,0.85
2023-04-06T21:45:54.280Z,0.90
2023-04-06T21:48:23.094Z,1.00
2023-04-06T21:50:51.671Z,1.03
2023-04-06T21:53:20.236Z,1.00
2023-04-06T21:55:49.442Z,2.30
2023-04-06T21:58:19.468Z,1.90
2023-04-06T22:00:47.996Z,2.08
2023-04-06T22:03:16.737Z,0.85
2023-04-06T22:05:45.421Z,1.98
2023-04-06T22:08:25.438Z,2.55
2023-04-06T22:10:58.899Z,2.88
2023-04-06T22:13:29.249Z,3.00
2023-04-06T22:15:57.733Z,1.63
2023-04-06T22:18:26.253Z,1.77
2023-04-06T22:20:54.803Z,3.00
2023-04-06T22:23:23.413Z,2.78
2023-04-06T22:25:52.079Z,2.85
2023-04-06T22:28:20.780Z,3.03
2023-04-06T22:30:50.660Z,3.00
2023-04-06T22:33:19.187Z,2.37
2023-04-06T22:35:47.762Z,1.35
2023-04-06T22:38:16.309Z,1.27
2023-04-06T22:40:44.805Z,1.00
2023-04-06T22:43:13.323Z,2.57
2023-04-06T22:45:41.825Z,2.95
2023-04-06T22:48:11.779Z,2.45
2023-04-06T22:50:40.464Z,1.45
2023-04-06T22:53:08.991Z,2.70
2023-04-06T22:55:40.133Z,2.40
2023-04-06T22:58:08.707Z,1.50
2023-04-06T23:00:37.199Z,2.63
2023-04-06T23:03:06.188Z,2.30
2023-04-06T23:05:36.241Z,1.92
2023-04-06T23:08:04.704Z,1.90
2023-04-06T23:10:33.226Z,2.75
2023-04-06T23:13:01.678Z,2.05
2023-04-06T23:15:30.192Z,2.85
2023-04-06T23:17:58.661Z,2.75
2023-04-06T23:20:27.236Z,2.60
2023-04-06T23:22:57.040Z,2.25
2023-04-06T23:25:25.685Z,2.10
2023-04-06T23:27:54.257Z,1.33
2023-04-06T23:30:23.104Z,1.05
2023-04-06T23:32:51.604Z,1.45
2023-04-06T23:35:20.184Z,1.00
2023-04-06T23:37:48.635Z,1.20
2023-04-06T23:40:18.607Z,2.80
2023-04-06T23:42:47.078Z,2.53
2023-04-06T23:45:15.740Z,2.72
2023-04-06T23:47:45.930Z,3.22
2023-04-06T23:50:14.475Z,2.55
2023-04-06T23:52:42.976Z,1.42
2023-04-06T23:55:11.895Z,1.73
2023-04-06T23:57:41.698Z,1.60
